createdAt,value
2023-04-27T00:00:18.169Z,89.94
2023-04-27T00:02:52.616Z,90.35
2023-04-27T00:05:25.666Z,90.41
2023-04-27T00:07:58.801Z,90.23
2023-04-27T00:10:31.870Z,90.99
2023-04-27T00:13:04.746Z,91.57
2023-04-27T00:15:37.773Z,92.99
2023-04-27T00:18:12.111Z,93.57
2023-04-27T00:20:44.965Z,92.60
2023-04-27T00:23:17.961Z,92.48
2023-04-27T00:25:50.756Z,91.59
2023-04-27T00:28:23.581Z,90.44
2023-04-27T00:30:56.358Z,89.78
2023-04-27T00:33:30.535Z,90.62
2023-04-27T00:36:03.825Z,91.03
2023-04-27T00:38:36.970Z,90.80
2023-04-27T00:41:11.365Z,91.15
2023-04-27T00:43:45.977Z,92.69
2023-04-27T00:46:19.738Z,93.02
2023-04-27T00:48:54.410Z,93.07
2023-04-27T00:51:30.143Z,92.30
2023-04-27T00:54:03.243Z,90.97
2023-04-27T00:56:37.807Z,91.46
2023-04-27T00:59:10.762Z,93.38
2023-04-27T01:01:43.777Z,93.28
2023-04-27T01:04:18.971Z,94.36
2023-04-27T01:06:51.855Z,93.68
2023-04-27T01:09:24.790Z,93.53
2023-04-27T01:11:58.260Z,93.90
2023-04-27T01:14:31.152Z,93.74
2023-04-27T01:17:04.002Z,93.71
2023-04-27T01:19:38.206Z,92.85
2023-04-27T01:22:11.037Z,94.43
2023-04-27T01:24:45.543Z,93.89
2023-04-27T01:27:18.411Z,94.16
2023-04-27T01:29:51.277Z,95.42
2023-04-27T01:32:24.165Z,94.82
2023-04-27T01:34:58.785Z,94.55
2023-04-27T01:37:32.408Z,92.69
2023-04-27T01:40:08.290Z,91.86
2023-04-27T01:42:41.360Z,92.12
2023-04-27T01:45:14.704Z,91.43
2023-04-27T01:47:47.571Z,90.60
2023-04-27T01:50:20.869Z,90.70
2023-04-27T01:52:53.699Z,90.91
2023-04-27T01:55:29.133Z,90.30
2023-04-27T01:58:01.904Z,89.74
2023-04-27T02:00:35.628Z,90.01
2023-04-27T02:03:08.727Z,90.02
2023-04-27T02:05:41.808Z,89.50
2023-04-27T02:08:14.699Z,89.64
2023-04-27T02:10:48.916Z,89.90
2023-04-27T02:13:23.062Z,89.76
2023-04-27T02:15:56.215Z,90.41
2023-04-27T02:18:29.311Z,91.46
2023-04-27T02:21:02.103Z,92.86
2023-04-27T02:23:35.694Z,93.29
2023-04-27T02:26:46.687Z,94.08
2023-04-27T02:29:19.663Z,93.14
2023-04-27T02:31:53.014Z,94.22
2023-04-27T02:34:25.984Z,94.17
2023-04-27T02:36:59.033Z,94.84
2023-04-27T02:39:32.222Z,96.45
2023-04-27T02:42:06.628Z,96.72
2023-04-27T02:44:39.414Z,96.69
2023-04-27T02:47:12.480Z,96.14
2023-04-27T02:49:45.429Z,95.84
2023-04-27T02:52:18.212Z,94.62
2023-04-27T02:54:50.959Z,94.00
2023-04-27T02:57:25.089Z,93.02
2023-04-27T02:59:58.213Z,93.14
2023-04-27T03:02:31.048Z,92.65
2023-04-27T03:05:05.547Z,91.77
2023-04-27T03:07:38.296Z,91.05
2023-04-27T03:10:11.688Z,91.17
2023-04-27T03:12:45.809Z,90.63
2023-04-27T03:15:18.758Z,90.70
2023-04-27T03:17:51.799Z,91.16
2023-04-27T03:20:24.645Z,90.96
2023-04-27T03:23:00.001Z,90.38
2023-04-27T03:25:32.792Z,90.52
2023-04-27T03:28:07.843Z,90.45
2023-04-27T03:30:42.870Z,90.34
2023-04-27T03:33:16.129Z,90.43
2023-04-27T03:35:56.193Z,90.62
2023-04-27T03:38:29.438Z,91.07
2023-04-27T03:41:02.554Z,91.42
2023-04-27T03:43:36.994Z,93.96
2023-04-27T03:46:09.851Z,94.97
2023-04-27T03:48:44.129Z,95.74
2023-04-27T03:51:17.223Z,95.60
2023-04-27T03:53:52.021Z,95.42
2023-04-27T03:56:24.846Z,94.16
2023-04-27T03:58:58.974Z,93.84
2023-04-27T04:01:39.916Z,93.81
2023-04-27T04:04:13.091Z,93.13
2023-04-27T04:06:45.909Z,92.63
2023-04-27T04:09:19.098Z,93.56
2023-04-27T04:11:52.754Z,94.04
2023-04-27T04:14:28.612Z,93.62
2023-04-27T04:17:01.382Z,93.34
2023-04-27T04:19:35.356Z,93.26
2023-04-27T04:22:08.132Z,93.63
2023-04-27T04:24:41.122Z,92.96
2023-04-27T04:27:14.087Z,93.27
2023-04-27T04:29:48.265Z,93.10
2023-04-27T04:32:22.825Z,94.25
2023-04-27T04:34:56.448Z,95.65
2023-04-27T04:37:29.537Z,96.53
2023-04-27T04:40:09.185Z,97.19
2023-04-27T04:42:42.768Z,97.75
2023-04-27T04:45:17.337Z,98.87
2023-04-27T04:47:50.473Z,98.95
2023-04-27T04:50:23.424Z,99.75
2023-04-27T04:52:57.794Z,99.56
2023-04-27T04:55:30.736Z,99.37
2023-04-27T04:58:03.532Z,98.68
2023-04-27T05:00:38.294Z,99.37
2023-04-27T05:03:11.161Z,98.84
2023-04-27T05:05:44.061Z,98.14
2023-04-27T05:08:17.487Z,99.08
2023-04-27T05:10:51.800Z,99.83
2023-04-27T05:13:25.676Z,99.95
2023-04-27T05:16:00.398Z,99.09
2023-04-27T05:18:33.676Z,98.12
2023-04-27T05:21:06.592Z,98.03
2023-04-27T05:23:39.415Z,97.67
2023-04-27T05:26:13.134Z,96.92
2023-04-27T05:28:47.060Z,96.85
2023-04-27T05:31:21.601Z,96.53
2023-04-27T05:33:54.478Z,96.20
2023-04-27T05:36:28.520Z,96.11
2023-04-27T05:39:01.559Z,94.38
2023-04-27T05:41:34.320Z,95.45
2023-04-27T05:44:07.593Z,95.59
2023-04-27T05:46:41.896Z,95.61
2023-04-27T05:49:14.916Z,95.08
2023-04-27T05:51:48.179Z,93.36
2023-04-27T05:54:22.122Z,93.82
2023-04-27T05:56:54.952Z,92.89
2023-04-27T05:59:29.305Z,91.46
2023-04-27T06:02:03.564Z,90.33
2023-04-27T06:04:37.212Z,90.88
2023-04-27T06:07:10.432Z,89.89
2023-04-27T06:09:43.381Z,89.93
2023-04-27T06:12:16.731Z,90.90
2023-04-27T06:14:49.557Z,89.20
2023-04-27T06:17:23.950Z,86.37
2023-04-27T06:19:56.697Z,85.38
2023-04-27T06:22:29.525Z,87.38
2023-04-27T06:25:02.375Z,87.61
2023-04-27T06:27:35.245Z,86.69
2023-04-27T06:30:09.483Z,86.23
2023-04-27T06:32:43.691Z,86.18
2023-04-27T06:35:16.674Z,86.55
2023-04-27T06:37:49.574Z,84.65
2023-04-27T06:40:22.692Z,85.03
2023-04-27T06:42:55.591Z,85.71
2023-04-27T06:45:28.425Z,85.86
2023-04-27T06:48:02.791Z,85.28
2023-04-27T06:50:35.592Z,82.63
2023-04-27T06:53:08.439Z,82.49
2023-04-27T06:55:43.951Z,81.44
2023-04-27T06:58:18.138Z,82.50
2023-04-27T07:00:50.998Z,82.18
2023-04-27T07:03:25.185Z,81.96
2023-04-27T07:05:59.204Z,82.47
2023-04-27T07:08:31.987Z,79.35
2023-04-27T07:11:04.810Z,78.21
2023-04-27T07:13:37.617Z,78.21
2023-04-27T07:16:10.468Z,77.76
2023-04-27T07:18:44.653Z,76.69
2023-04-27T07:21:17.453Z,76.62
2023-04-27T07:23:50.286Z,77.26
2023-04-27T07:26:24.707Z,76.91
2023-04-27T07:28:57.505Z,75.62
2023-04-27T07:31:30.327Z,75.98
2023-04-27T07:34:04.922Z,73.84
2023-04-27T07:36:38.227Z,71.25
2023-04-27T07:39:11.626Z,68.49
2023-04-27T07:41:44.553Z,67.96
2023-04-27T07:44:18.446Z,68.17
2023-04-27T07:46:54.116Z,67.80
2023-04-27T07:49:28.268Z,67.22
2023-04-27T07:52:01.248Z,66.25
2023-04-27T07:54:34.071Z,66.37
2023-04-27T07:57:09.637Z,65.38
2023-04-27T07:59:42.489Z,64.93
2023-04-27T08:02:19.674Z,61.13
2023-04-27T08:04:54.697Z,61.32
2023-04-27T08:07:28.162Z,63.36
2023-04-27T08:10:01.168Z,62.09
2023-04-27T08:12:34.054Z,62.88
2023-04-27T08:15:08.226Z,62.03
2023-04-27T08:17:42.071Z,60.31
2023-04-27T08:20:16.441Z,59.60
2023-04-27T08:22:51.926Z,59.20
2023-04-27T08:25:24.847Z,58.06
2023-04-27T08:27:58.189Z,55.53
2023-04-27T08:30:30.933Z,55.99
2023-04-27T08:33:03.920Z,56.75
2023-04-27T08:35:38.201Z,57.36
2023-04-27T08:38:11.159Z,58.87
2023-04-27T08:40:55.692Z,58.04
2023-04-27T08:43:35.317Z,55.75
2023-04-27T08:46:08.101Z,55.38
2023-04-27T08:48:40.942Z,56.71
2023-04-27T08:51:16.285Z,57.09
2023-04-27T08:53:51.397Z,56.06
2023-04-27T08:56:27.566Z,56.71
2023-04-27T08:59:02.344Z,55.95
2023-04-27T09:01:35.344Z,55.86
2023-04-27T09:04:08.489Z,52.88
2023-04-27T09:06:43.093Z,53.31
2023-04-27T09:09:23.888Z,54.75
2023-04-27T09:11:56.854Z,54.20
2023-04-27T09:14:30.834Z,51.56
2023-04-27T09:17:03.581Z,51.30
2023-04-27T09:19:36.414Z,53.46
2023-04-27T09:22:13.679Z,53.10
2023-04-27T09:24:52.137Z,49.58
2023-04-27T09:27:24.930Z,51.16
2023-04-27T09:29:57.918Z,51.02
2023-04-27T09:32:30.701Z,52.77
2023-04-27T09:35:04.059Z,50.09
2023-04-27T09:37:38.271Z,50.07
2023-04-27T09:40:11.776Z,50.00
2023-04-27T09:42:44.704Z,49.88
2023-04-27T09:45:18.762Z,48.97
2023-04-27T09:47:52.081Z,47.50
2023-04-27T09:50:24.865Z,49.20
2023-04-27T09:52:59.316Z,50.16
2023-04-27T09:55:35.635Z,50.00
2023-04-27T09:58:28.857Z,49.02
2023-04-27T10:01:09.276Z,47.68
2023-04-27T10:03:56.868Z,44.91
2023-04-27T10:06:58.856Z,44.39
2023-04-27T10:09:38.084Z,45.87
2023-04-27T10:12:19.758Z,44.26
2023-04-27T10:14:54.069Z,41.28
2023-04-27T10:17:31.264Z,44.65
2023-04-27T10:20:07.275Z,45.14
2023-04-27T10:22:40.967Z,43.24
2023-04-27T10:25:18.791Z,44.46
2023-04-27T10:27:53.297Z,42.89
2023-04-27T10:30:27.727Z,46.22
2023-04-27T10:33:05.642Z,43.57
2023-04-27T10:35:40.487Z,45.05
2023-04-27T10:38:18.182Z,45.65
2023-04-27T10:40:57.810Z,43.98
2023-04-27T10:43:31.942Z,42.99
2023-04-27T10:46:12.551Z,43.89
2023-04-27T10:48:46.109Z,42.76
2023-04-27T10:51:18.937Z,44.41
2023-04-27T10:53:53.925Z,43.89
2023-04-27T10:56:28.166Z,42.76
2023-04-27T10:59:04.203Z,43.50
2023-04-27T11:01:38.124Z,43.73
2023-04-27T11:04:10.950Z,42.82
2023-04-27T11:06:45.996Z,44.09
2023-04-27T11:09:27.038Z,44.64
2023-04-27T11:12:01.832Z,43.09
2023-04-27T11:14:36.958Z,43.49
2023-04-27T11:17:10.163Z,42.84
2023-04-27T11:19:47.361Z,43.24
2023-04-27T11:22:20.208Z,42.90
2023-04-27T11:24:54.101Z,42.07
2023-04-27T11:27:38.329Z,42.22
2023-04-27T11:30:22.177Z,41.81
2023-04-27T11:32:54.958Z,42.79
2023-04-27T11:41:26.821Z,43.82
2023-04-27T11:44:08.353Z,44.06
2023-04-27T11:46:45.365Z,43.64
2023-04-27T11:49:18.344Z,42.49
2023-04-27T11:51:51.583Z,43.29
2023-04-27T11:54:29.599Z,42.92
2023-04-27T11:57:09.284Z,43.88
2023-04-27T11:59:43.616Z,43.25
2023-04-27T12:02:17.085Z,44.38
2023-04-27T12:04:50.434Z,42.55
2023-04-27T12:07:23.327Z,43.65
2023-04-27T12:09:56.136Z,42.58
2023-04-27T12:12:29.011Z,43.67
2023-04-27T12:15:03.434Z,44.35
2023-04-27T12:17:36.266Z,42.51
2023-04-27T12:20:10.191Z,44.05
2023-04-27T12:22:42.930Z,42.47
2023-04-27T12:25:17.525Z,43.47
2023-04-27T12:27:50.440Z,42.04
2023-04-27T12:30:24.897Z,43.93
2023-04-27T12:32:59.588Z,41.86
2023-04-27T12:35:32.759Z,43.21
2023-04-27T12:38:05.457Z,40.97
2023-04-27T12:40:38.841Z,41.59
2023-04-27T12:43:12.781Z,43.63
2023-04-27T12:45:46.926Z,43.69
2023-04-27T12:48:19.875Z,44.11
2023-04-27T12:50:52.783Z,43.69
2023-04-27T12:53:25.678Z,43.70
2023-04-27T12:56:00.677Z,41.27
2023-04-27T12:58:33.462Z,42.14
2023-04-27T13:01:14.738Z,41.91
2023-04-27T13:03:48.554Z,43.51
2023-04-27T13:06:22.899Z,41.95
2023-04-27T13:08:55.920Z,42.77
2023-04-27T13:11:28.795Z,42.84
2023-04-27T13:14:02.113Z,41.93
2023-04-27T13:16:36.492Z,43.08
2023-04-27T13:19:09.417Z,42.20
2023-04-27T13:21:42.267Z,42.03
2023-04-27T13:24:17.533Z,42.22
2023-04-27T13:26:50.452Z,41.46
2023-04-27T13:29:24.475Z,43.28
2023-04-27T13:31:58.919Z,44.00
2023-04-27T13:34:31.731Z,43.82
2023-04-27T13:37:04.589Z,44.96
2023-04-27T13:39:38.210Z,41.32
2023-04-27T13:42:11.462Z,42.07
2023-04-27T13:44:44.319Z,44.17
2023-04-27T13:47:18.614Z,42.13
2023-04-27T13:49:51.366Z,42.91
2023-04-27T13:52:24.130Z,41.64
2023-04-27T13:54:57.007Z,42.36
2023-04-27T13:57:29.740Z,44.48
2023-04-27T14:00:03.412Z,42.93
2023-04-27T14:02:43.026Z,43.55
2023-04-27T14:05:15.879Z,42.38
2023-04-27T14:07:48.646Z,42.15
2023-04-27T14:10:21.462Z,44.22
2023-04-27T14:12:54.247Z,43.82
2023-04-27T14:15:27.504Z,43.46
2023-04-27T14:18:01.719Z,44.20
2023-04-27T14:20:34.648Z,42.92
2023-04-27T14:23:07.517Z,44.34
2023-04-27T14:25:40.273Z,43.31
2023-04-27T14:28:15.191Z,42.80
2023-04-27T14:30:48.303Z,43.44
2023-04-27T14:33:22.395Z,42.32
2023-04-27T14:35:56.232Z,43.58
2023-04-27T14:38:29.020Z,43.04
2023-04-27T14:41:04.455Z,42.26
2023-04-27T14:43:37.148Z,42.97
2023-04-27T14:46:20.341Z,44.07
2023-04-27T14:48:55.287Z,41.68
2023-04-27T14:51:28.803Z,41.93
2023-04-27T14:54:02.297Z,42.30
2023-04-27T14:56:35.132Z,40.45
2023-04-27T14:59:07.952Z,41.67
2023-04-27T15:01:40.756Z,43.41
2023-04-27T15:04:15.118Z,43.21
2023-04-27T15:06:48.008Z,42.58
2023-04-27T15:09:20.964Z,43.38
2023-04-27T15:11:53.802Z,43.22
2023-04-27T15:14:26.702Z,42.04
2023-04-27T15:16:59.540Z,42.69
2023-04-27T15:19:33.917Z,43.42
2023-04-27T15:22:07.167Z,42.66
2023-04-27T15:24:40.409Z,43.14
2023-04-27T15:27:13.386Z,43.24
2023-04-27T15:29:46.275Z,43.75
2023-04-27T15:32:19.153Z,44.51
2023-04-27T15:34:53.220Z,44.78
2023-04-27T15:37:26.712Z,44.44
2023-04-27T15:39:59.470Z,45.29
2023-04-27T15:42:32.269Z,43.10
2023-04-27T15:45:06.301Z,43.82
2023-04-27T15:47:40.336Z,42.73
2023-04-27T15:50:14.624Z,42.09
2023-04-27T15:52:47.716Z,42.33
2023-04-27T15:55:20.985Z,43.17
2023-04-27T15:57:54.380Z,41.55
2023-04-27T16:00:27.409Z,44.25
2023-04-27T16:03:00.632Z,43.83
2023-04-27T16:05:35.014Z,43.59
2023-04-27T16:08:07.901Z,44.78
2023-04-27T16:10:40.803Z,43.30
2023-04-27T16:13:13.674Z,43.59
2023-04-27T16:15:46.391Z,43.36
2023-04-27T16:18:19.184Z,44.30
2023-04-27T16:20:53.457Z,44.36
2023-04-27T16:23:26.454Z,44.44
2023-04-27T16:25:59.190Z,43.18
2023-04-27T16:28:32.806Z,45.39
2023-04-27T16:31:05.699Z,44.11
2023-04-27T16:33:38.583Z,44.01
2023-04-27T16:36:12.740Z,44.10
2023-04-27T16:38:46.295Z,44.82
2023-04-27T16:41:19.217Z,45.24
2023-04-27T16:43:52.114Z,43.99
2023-04-27T16:46:24.946Z,45.02
2023-04-27T16:48:57.798Z,45.43
2023-04-27T16:51:32.512Z,46.37
2023-04-27T16:54:05.278Z,44.30
2023-04-27T16:56:38.146Z,43.65
2023-04-27T16:59:12.748Z,45.59
2023-04-27T17:01:45.739Z,44.76
2023-04-27T17:04:18.705Z,45.41
2023-04-27T17:06:52.912Z,45.45
2023-04-27T17:13:45.108Z,47.99
2023-04-27T17:16:18.170Z,49.55
2023-04-27T17:18:52.098Z,49.04
2023-04-27T17:21:25.124Z,48.81
2023-04-27T17:23:59.274Z,49.98
2023-04-27T17:26:32.708Z,49.13
2023-04-27T17:29:05.641Z,49.96
2023-04-27T17:31:38.467Z,50.66
2023-04-27T17:34:12.204Z,50.73
2023-04-27T17:36:45.171Z,49.94
2023-04-27T17:39:22.675Z,50.38
2023-04-27T17:41:56.829Z,50.13
2023-04-27T17:44:29.677Z,50.94
2023-04-27T17:47:02.489Z,50.33
2023-04-27T17:49:35.398Z,50.67
2023-04-27T17:52:08.200Z,51.17
2023-04-27T17:54:43.288Z,50.28
2023-04-27T17:57:16.145Z,49.34
2023-04-27T17:59:50.001Z,49.43
2023-04-27T18:02:23.195Z,49.60
2023-04-27T18:04:56.359Z,49.86
2023-04-27T18:07:29.198Z,50.43
2023-04-27T18:10:03.841Z,51.12
2023-04-27T18:12:36.760Z,52.23
2023-04-27T18:15:37.994Z,52.53
2023-04-27T18:18:23.229Z,52.84
2023-04-27T18:20:58.474Z,53.69
2023-04-27T18:23:44.110Z,54.37
2023-04-27T18:27:38.116Z,54.92
2023-04-27T18:30:32.035Z,57.86
2023-04-27T18:33:07.877Z,55.13
2023-04-27T18:35:41.998Z,56.32
2023-04-27T18:38:14.848Z,56.35
2023-04-27T18:40:47.693Z,57.66
2023-04-27T18:43:20.651Z,58.94
2023-04-27T18:45:54.879Z,60.69
2023-04-27T18:48:27.828Z,60.70
2023-04-27T18:51:00.697Z,61.93
2023-04-27T18:53:33.582Z,62.60
2023-04-27T18:56:08.045Z,63.37
2023-04-27T18:58:41.870Z,63.75
2023-04-27T19:01:21.246Z,64.27
2023-04-27T19:03:55.027Z,64.65
2023-04-27T19:06:27.941Z,66.08
2023-04-27T19:09:00.853Z,67.89
2023-04-27T19:11:33.837Z,69.51
2023-04-27T19:14:06.879Z,70.73
2023-04-27T19:16:43.788Z,69.67
2023-04-27T19:19:19.235Z,71.53
2023-04-27T19:21:53.727Z,72.14
2023-04-27T19:24:27.460Z,72.10
2023-04-27T19:30:02.595Z,74.64
2023-04-27T19:32:37.887Z,74.67
2023-04-27T19:35:12.663Z,74.57
2023-04-27T19:37:46.063Z,74.87
2023-04-27T19:40:19.619Z,76.09
2023-04-27T19:42:53.474Z,76.90
2023-04-27T19:45:27.795Z,76.64
2023-04-27T19:48:02.380Z,75.73
2023-04-27T19:50:35.883Z,76.25
2023-04-27T19:53:09.690Z,75.97
2023-04-27T19:55:42.607Z,75.96
2023-04-27T19:58:15.400Z,76.00
2023-04-27T20:00:48.242Z,76.93
2023-04-27T20:03:22.992Z,77.83
2023-04-27T20:05:56.449Z,78.77
2023-04-27T20:08:29.432Z,77.30
2023-04-27T20:11:02.282Z,76.91
2023-04-27T20:13:35.075Z,76.31
2023-04-27T20:16:09.889Z,77.25
2023-04-27T20:18:45.237Z,75.88
2023-04-27T20:21:18.331Z,76.26
2023-04-27T20:23:51.555Z,76.44
2023-04-27T20:26:24.447Z,76.75
2023-04-27T20:28:57.289Z,78.90
2023-04-27T20:31:30.223Z,78.96
2023-04-27T20:34:04.322Z,78.85
2023-04-27T20:36:37.115Z,80.10
2023-04-27T20:39:11.907Z,79.89
2023-04-27T20:41:44.824Z,79.77
2023-04-27T20:44:18.011Z,79.20
2023-04-27T20:46:50.855Z,80.92
2023-04-27T20:49:34.325Z,81.21
2023-04-27T20:52:08.251Z,81.74
2023-04-27T20:54:41.443Z,81.52
2023-04-27T20:57:14.510Z,81.57
2023-04-27T20:59:47.380Z,82.99
2023-04-27T21:02:20.221Z,84.04
2023-04-27T21:04:54.484Z,84.61
2023-04-27T21:07:27.455Z,83.91
2023-04-27T21:10:06.247Z,83.91
2023-04-27T21:12:39.313Z,83.71
2023-04-27T21:15:12.727Z,82.31
2023-04-27T21:17:45.644Z,81.58
2023-04-27T21:20:20.089Z,81.64
2023-04-27T21:22:53.026Z,82.32
2023-04-27T21:25:26.093Z,83.94
2023-04-27T21:27:58.881Z,84.71
2023-04-27T21:30:31.664Z,84.40
2023-04-27T21:33:04.720Z,85.79
2023-04-27T21:35:39.285Z,85.08
2023-04-27T21:38:12.416Z,84.76
2023-04-27T21:40:45.268Z,84.80
2023-04-27T21:43:18.125Z,84.23
2023-04-27T21:45:50.895Z,84.25
2023-04-27T21:48:23.950Z,84.21
2023-04-27T21:50:58.202Z,83.98
2023-04-27T21:53:31.495Z,84.05
2023-04-27T21:56:04.359Z,84.98
2023-04-27T21:58:37.046Z,84.84
2023-04-27T22:01:10.333Z,83.66
2023-04-27T22:03:43.336Z,83.74
2023-04-27T22:06:17.774Z,83.51
2023-04-27T22:08:50.895Z,83.73
2023-04-27T22:11:23.717Z,82.83
2023-04-27T22:13:57.420Z,82.68
2023-04-27T22:16:30.477Z,83.10
2023-04-27T22:19:03.778Z,82.33
2023-04-27T22:21:37.982Z,82.08
2023-04-27T22:24:10.800Z,82.48
2023-04-27T22:26:43.625Z,83.57
2023-04-27T22:29:16.884Z,83.79
2023-04-27T22:31:49.782Z,83.89
2023-04-27T22:34:22.719Z,83.30
2023-04-27T22:36:56.968Z,83.89
2023-04-27T22:39:31.625Z,84.76
2023-04-27T22:42:04.530Z,84.66
2023-04-27T22:44:37.312Z,83.91
2023-04-27T22:47:10.794Z,83.80
2023-04-27T22:49:43.640Z,84.81
2023-04-27T22:52:18.020Z,85.89
2023-04-27T22:54:50.853Z,86.94
2023-04-27T22:57:23.731Z,85.89
2023-04-27T22:59:56.511Z,86.12
2023-04-27T23:02:29.780Z,85.64
2023-04-27T23:05:02.688Z,85.81
2023-04-27T23:07:37.112Z,86.08
2023-04-27T23:10:11.105Z,86.07
2023-04-27T23:12:44.031Z,86.08
2023-04-27T23:15:16.969Z,85.40
2023-04-27T23:17:49.896Z,84.88
2023-04-27T23:22:59.748Z,84.74
2023-04-27T23:25:33.550Z,84.73
2023-04-27T23:28:06.690Z,85.43
2023-04-27T23:30:39.546Z,85.77
2023-04-27T23:33:12.947Z,85.63
2023-04-27T23:35:45.815Z,86.35
2023-04-27T23:38:20.157Z,85.99
2023-04-27T23:40:52.960Z,86.52
2023-04-27T23:43:26.011Z,87.87
2023-04-27T23:45:59.107Z,87.06
2023-04-27T23:48:31.890Z,87.22
2023-04-27T23:51:05.763Z,87.29
2023-04-27T23:53:39.879Z,87.22
2023-04-27T23:56:17.490Z,85.96
2023-04-27T23:58:50.391Z,85.78
